createdAt,value
2022-10-23T00:00:16.322Z,99.99
2022-10-23T00:01:16.187Z,99.99
2022-10-23T00:02:17.221Z,99.99
2022-10-23T00:03:17.359Z,99.99
2022-10-23T00:04:17.697Z,99.99
2022-10-23T00:05:18.186Z,99.99
2022-10-23T00:06:19.120Z,99.99
2022-10-23T00:07:19.390Z,99.99
2022-10-23T00:08:19.801Z,99.99
2022-10-23T00:09:20.771Z,99.99
2022-10-23T00:10:21.388Z,99.99
2022-10-23T00:11:22.281Z,99.99
2022-10-23T00:12:22.896Z,99.99
2022-10-23T00:13:22.951Z,99.99
2022-10-23T00:14:23.850Z,99.99
2022-10-23T00:15:24.782Z,99.99
2022-10-23T00:16:25.407Z,99.99
2022-10-23T00:17:26.013Z,99.99
2022-10-23T00:18:26.918Z,99.99
2022-10-23T00:19:27.050Z,99.99
2022-10-23T00:20:28.266Z,99.99
2022-10-23T00:21:29.189Z,99.99
2022-10-23T00:22:29.802Z,99.99
2022-10-23T00:23:29.764Z,99.99
2022-10-23T00:24:30.677Z,99.99
2022-10-23T00:25:31.292Z,99.99
2022-10-23T00:26:32.006Z,99.99
2022-10-23T00:27:32.892Z,99.99
2022-10-23T00:28:33.298Z,99.99
2022-10-23T00:29:33.973Z,99.99
2022-10-23T00:30:34.861Z,99.99
2022-10-23T00:31:36.211Z,99.99
2022-10-23T00:32:36.186Z,99.99
2022-10-23T00:33:37.096Z,99.99
2022-10-23T00:34:38.144Z,99.99
2022-10-23T00:35:39.068Z,99.99
2022-10-23T00:36:38.975Z,99.99
2022-10-23T00:37:40.425Z,99.99
2022-10-23T00:38:40.935Z,99.99
2022-10-23T00:39:41.366Z,99.99
2022-10-23T00:40:41.825Z,99.99
2022-10-23T00:41:43.083Z,99.99
2022-10-23T00:42:44.259Z,99.99
2022-10-23T00:43:44.426Z,99.99
2022-10-23T00:44:45.603Z,99.99
2022-10-23T00:45:46.222Z,99.99
2022-10-23T00:46:47.139Z,99.99
2022-10-23T00:47:47.755Z,99.99
2022-10-23T00:48:48.253Z,99.99
2022-10-23T00:49:48.688Z,99.99
2022-10-23T00:50:48.926Z,99.99
2022-10-23T00:51:49.118Z,99.99
2022-10-23T00:52:50.386Z,99.99
2022-10-23T00:53:56.759Z,99.99
2022-10-23T00:54:50.723Z,99.99
2022-10-23T00:55:50.634Z,99.99
2022-10-23T00:56:50.958Z,99.99
2022-10-23T00:57:51.142Z,99.99
2022-10-23T00:58:51.796Z,99.99
2022-10-23T00:59:52.546Z,99.99
2022-10-23T01:00:53.437Z,99.99
2022-10-23T01:01:54.226Z,99.99
2022-10-23T01:02:54.592Z,99.99
2022-10-23T01:03:55.501Z,99.99
2022-10-23T01:04:56.109Z,99.99
2022-10-23T01:05:57.051Z,99.99
2022-10-23T01:06:57.245Z,99.99
2022-10-23T01:07:57.852Z,99.99
2022-10-23T01:08:58.366Z,99.99
2022-10-23T01:09:58.754Z,99.99
2022-10-23T01:10:59.237Z,99.99
2022-10-23T01:11:59.870Z,99.99
2022-10-23T01:13:00.069Z,99.99
2022-10-23T01:14:01.050Z,99.99
2022-10-23T01:15:01.544Z,99.99
2022-10-23T01:16:02.185Z,99.99
2022-10-23T01:17:02.483Z,99.99
2022-10-23T01:18:03.095Z,99.99
2022-10-23T01:19:03.735Z,99.99
2022-10-23T01:20:04.017Z,99.99
2022-10-23T01:21:04.673Z,99.99
2022-10-23T01:22:05.276Z,99.99
2022-10-23T01:23:06.362Z,99.99
2022-10-23T01:24:06.874Z,99.99
2022-10-23T01:25:07.779Z,99.99
2022-10-23T01:26:08.093Z,99.99
2022-10-23T01:27:08.987Z,99.99
2022-10-23T01:28:09.175Z,99.99
2022-10-23T01:29:09.114Z,99.99
2022-10-23T01:30:09.783Z,99.99
2022-10-23T01:31:11.113Z,99.99
2022-10-23T01:32:12.026Z,99.99
2022-10-23T01:33:12.954Z,99.99
2022-10-23T01:34:13.176Z,99.99
2022-10-23T01:35:13.353Z,99.99
2022-10-23T01:36:14.269Z,99.99
2022-10-23T01:37:14.300Z,99.99
2022-10-23T01:38:15.206Z,99.99
2022-10-23T01:39:15.843Z,99.99
2022-10-23T01:40:16.831Z,99.99
2022-10-23T01:41:17.741Z,99.99
2022-10-23T01:42:18.070Z,99.99
2022-10-23T01:43:18.554Z,99.99
2022-10-23T01:44:18.888Z,99.99
2022-10-23T01:45:19.765Z,99.99
2022-10-23T01:46:20.974Z,99.99
2022-10-23T01:48:22.136Z,99.99
2022-10-23T01:49:22.355Z,99.99
2022-10-23T01:50:23.062Z,99.99
2022-10-23T01:51:23.282Z,99.99
2022-10-23T01:52:23.886Z,99.99
2022-10-23T01:53:25.093Z,99.99
2022-10-23T01:54:25.601Z,99.99
2022-10-23T01:55:26.096Z,99.99
2022-10-23T01:56:26.998Z,99.99
2022-10-23T01:57:27.329Z,99.99
2022-10-23T01:58:27.526Z,99.99
2022-10-23T01:59:28.466Z,99.99
2022-10-23T02:00:28.452Z,99.99
2022-10-23T02:01:29.069Z,99.99
2022-10-23T02:02:29.736Z,99.99
2022-10-23T02:03:29.816Z,99.99
2022-10-23T02:04:30.320Z,99.99
2022-10-23T02:05:31.222Z,99.99
2022-10-23T02:06:31.713Z,99.99
2022-10-23T02:07:32.319Z,99.99
2022-10-23T02:08:32.567Z,99.99
2022-10-23T02:09:33.193Z,99.99
2022-10-23T02:10:34.173Z,99.99
2022-10-23T02:11:35.101Z,99.99
2022-10-23T02:12:35.723Z,99.99
2022-10-23T02:13:36.237Z,99.99
2022-10-23T02:14:36.470Z,99.99
2022-10-23T02:15:37.251Z,99.99
2022-10-23T02:16:37.165Z,99.99
2022-10-23T02:17:37.797Z,99.99
2022-10-23T02:18:38.723Z,99.99
2022-10-23T02:19:39.648Z,99.99
2022-10-23T02:20:40.490Z,99.99
2022-10-23T02:21:41.301Z,99.99
2022-10-23T02:22:42.263Z,99.99
2022-10-23T02:23:42.517Z,99.99
2022-10-23T02:24:42.651Z,99.99
2022-10-23T02:25:43.835Z,99.99
2022-10-23T02:26:44.452Z,99.99
2022-10-23T02:27:45.638Z,99.99
2022-10-23T02:28:45.962Z,99.99
2022-10-23T02:29:47.317Z,99.99
2022-10-23T02:30:47.737Z,99.99
2022-10-23T02:31:48.771Z,99.99
2022-10-23T02:32:49.492Z,99.99
2022-10-23T02:33:49.528Z,99.99
2022-10-23T02:34:50.447Z,99.99
2022-10-23T02:35:50.635Z,99.99
2022-10-23T02:36:51.273Z,99.99
2022-10-23T02:37:51.562Z,99.99
2022-10-23T02:38:52.171Z,99.99
2022-10-23T02:39:53.391Z,99.99
2022-10-23T02:40:53.380Z,99.99
2022-10-23T02:41:53.861Z,99.99
2022-10-23T02:42:54.467Z,99.99
2022-10-23T02:43:54.784Z,99.99
2022-10-23T02:44:55.993Z,99.99
2022-10-23T02:45:56.166Z,99.99
2022-10-23T02:46:57.061Z,99.99
2022-10-23T02:47:57.540Z,99.99
2022-10-23T02:48:58.128Z,99.99
2022-10-23T02:49:59.342Z,99.99
2022-10-23T02:50:59.744Z,99.99
2022-10-23T02:52:00.659Z,99.99
2022-10-23T02:53:01.140Z,99.99
2022-10-23T02:54:02.741Z,99.99
2022-10-23T02:55:02.958Z,99.99
2022-10-23T02:56:03.449Z,99.99
2022-10-23T02:57:03.931Z,99.99
2022-10-23T02:58:04.264Z,99.99
2022-10-23T02:59:04.453Z,99.99
2022-10-23T03:00:05.393Z,99.99
2022-10-23T03:01:05.773Z,99.99
2022-10-23T03:02:07.141Z,99.99
2022-10-23T03:03:07.305Z,99.99
2022-10-23T03:04:08.513Z,99.99
2022-10-23T03:05:08.714Z,99.99
2022-10-23T03:06:09.301Z,99.99
2022-10-23T03:07:10.213Z,99.99
2022-10-23T03:08:10.808Z,99.99
2022-10-23T03:09:11.731Z,99.99
2022-10-23T03:10:12.238Z,99.99
2022-10-23T03:11:13.243Z,99.99
2022-10-23T03:12:14.126Z,99.99
2022-10-23T03:13:14.324Z,99.99
2022-10-23T03:14:14.499Z,99.99
2022-10-23T03:15:15.728Z,99.99
2022-10-23T03:16:16.635Z,99.99
2022-10-23T03:17:17.538Z,99.99
2022-10-23T03:18:18.445Z,99.99
2022-10-23T03:19:19.060Z,99.99
2022-10-23T03:20:18.987Z,99.99
2022-10-23T03:21:19.990Z,99.99
2022-10-23T03:22:20.897Z,99.99
2022-10-23T03:23:20.813Z,99.99
2022-10-23T03:24:21.713Z,99.99
2022-10-23T03:25:21.971Z,99.99
2022-10-23T03:26:22.556Z,99.99
2022-10-23T03:27:23.786Z,99.99
2022-10-23T03:28:24.087Z,99.99
2022-10-23T03:29:23.989Z,99.99
2022-10-23T03:30:24.923Z,99.99
2022-10-23T03:31:25.012Z,99.99
2022-10-23T03:32:25.641Z,99.99
2022-10-23T03:33:25.954Z,99.99
2022-10-23T03:34:27.288Z,99.99
2022-10-23T03:35:28.208Z,99.99
2022-10-23T03:36:28.443Z,99.99
2022-10-23T03:37:29.068Z,99.99
2022-10-23T03:38:29.324Z,99.99
2022-10-23T03:39:30.252Z,99.99
2022-10-23T03:40:30.902Z,99.99
2022-10-23T03:41:31.884Z,99.99
2022-10-23T03:42:32.511Z,99.99
2022-10-23T03:43:33.152Z,99.99
2022-10-23T03:44:33.337Z,99.99
2022-10-23T03:45:34.251Z,99.99
2022-10-23T03:46:34.456Z,99.99
2022-10-23T03:47:35.088Z,99.99
2022-10-23T03:48:36.029Z,99.99
2022-10-23T03:49:36.344Z,99.99
2022-10-23T03:50:37.545Z,99.99
2022-10-23T03:51:37.819Z,99.99
2022-10-23T03:52:38.044Z,99.99
2022-10-23T03:53:38.469Z,99.99
2022-10-23T03:54:39.394Z,99.99
2022-10-23T03:55:40.323Z,99.99
2022-10-23T03:56:40.523Z,99.99
2022-10-23T03:57:41.291Z,99.99
2022-10-23T03:58:42.478Z,99.99
2022-10-23T03:59:42.383Z,99.99
2022-10-23T04:01:44.243Z,99.99
2022-10-23T04:02:45.245Z,99.99
2022-10-23T04:03:45.870Z,99.99
2022-10-23T04:04:46.061Z,99.99
2022-10-23T04:05:47.207Z,99.99
2022-10-23T04:06:47.829Z,99.99
2022-10-23T04:07:48.376Z,99.99
2022-10-23T04:08:48.662Z,99.99
2022-10-23T04:09:48.930Z,99.99
2022-10-23T04:10:49.872Z,99.99
2022-10-23T04:11:50.008Z,99.99
2022-10-23T04:12:51.150Z,99.99
2022-10-23T04:13:50.464Z,99.99
2022-10-23T04:14:51.076Z,99.99
2022-10-23T04:15:52.308Z,99.99
2022-10-23T04:16:53.184Z,99.99
2022-10-23T04:17:53.816Z,99.99
2022-10-23T04:18:54.416Z,99.99
2022-10-23T04:19:55.323Z,99.99
2022-10-23T04:20:56.250Z,99.99
2022-10-23T04:21:56.529Z,99.99
2022-10-23T04:22:57.020Z,99.99
2022-10-23T04:23:57.909Z,99.99
2022-10-23T04:24:58.516Z,99.99
2022-10-23T04:25:59.149Z,99.99
2022-10-23T04:26:59.460Z,99.99
2022-10-23T04:28:00.349Z,99.99
2022-10-23T04:29:00.682Z,99.99
2022-10-23T04:30:04.518Z,99.99
2022-10-23T04:31:02.452Z,99.99
2022-10-23T04:32:03.141Z,99.99
2022-10-23T04:33:04.081Z,99.99
2022-10-23T04:35:04.683Z,99.99
2022-10-23T04:36:05.305Z,99.99
2022-10-23T04:37:06.489Z,99.99
2022-10-23T04:38:07.409Z,99.99
2022-10-23T04:39:08.051Z,99.99
2022-10-23T04:40:08.238Z,99.99
2022-10-23T04:41:08.452Z,99.99
2022-10-23T04:42:08.582Z,99.99
2022-10-23T04:43:09.684Z,99.99
2022-10-23T04:44:10.291Z,99.99
2022-10-23T04:45:11.475Z,99.99
2022-10-23T04:46:11.406Z,99.99
2022-10-23T04:47:12.577Z,99.99
2022-10-23T04:48:12.906Z,99.99
2022-10-23T04:49:13.828Z,99.99
2022-10-23T04:50:14.033Z,99.99
2022-10-23T04:51:14.339Z,99.99
2022-10-23T04:52:14.322Z,99.99
2022-10-23T04:53:15.524Z,99.99
2022-10-23T04:54:15.431Z,99.99
2022-10-23T04:55:16.057Z,99.99
2022-10-23T04:56:16.270Z,99.99
2022-10-23T04:57:16.893Z,99.99
2022-10-23T04:58:17.502Z,99.99
2022-10-23T04:59:18.106Z,99.99
2022-10-23T05:00:18.742Z,99.99
2022-10-23T05:01:19.651Z,99.99
2022-10-23T05:02:19.120Z,99.99
2022-10-23T05:03:20.034Z,99.99
2022-10-23T05:04:20.643Z,99.99
2022-10-23T05:05:21.853Z,99.99
2022-10-23T05:06:22.066Z,99.99
2022-10-23T05:08:23.844Z,99.99
2022-10-23T05:09:23.047Z,99.99
2022-10-23T05:10:23.986Z,99.99
2022-10-23T05:11:24.215Z,99.99
2022-10-23T05:12:25.225Z,99.99
2022-10-23T05:13:25.157Z,99.99
2022-10-23T05:14:28.431Z,99.99
2022-10-23T05:15:26.022Z,99.99
2022-10-23T05:16:27.085Z,99.99
2022-10-23T05:17:28.055Z,99.99
2022-10-23T05:18:28.069Z,99.99
2022-10-23T05:19:30.049Z,99.99
2022-10-23T05:20:29.654Z,99.99
2022-10-23T05:21:30.299Z,99.99
2022-10-23T05:22:31.589Z,99.99
2022-10-23T05:23:32.088Z,99.99
2022-10-23T05:24:32.716Z,99.99
2022-10-23T05:25:33.086Z,99.99
2022-10-23T05:26:33.018Z,99.99
2022-10-23T05:27:33.208Z,99.99
2022-10-23T05:28:34.535Z,99.99
2022-10-23T05:29:35.162Z,99.99
2022-10-23T05:30:35.753Z,99.99
2022-10-23T05:31:36.982Z,99.99
2022-10-23T05:32:36.967Z,99.99
2022-10-23T05:33:37.666Z,99.99
2022-10-23T05:34:38.445Z,99.99
2022-10-23T05:35:38.626Z,99.99
2022-10-23T05:36:38.828Z,99.99
2022-10-23T05:37:39.439Z,99.99
2022-10-23T05:38:39.659Z,99.99
2022-10-23T05:39:39.863Z,99.99
2022-10-23T05:41:41.002Z,99.99
2022-10-23T05:42:46.694Z,99.99
2022-10-23T05:43:41.887Z,99.99
2022-10-23T05:44:42.799Z,99.99
2022-10-23T05:45:43.409Z,99.99
2022-10-23T05:46:44.649Z,99.99
2022-10-23T05:47:45.121Z,99.99
2022-10-23T05:48:45.130Z,99.99
2022-10-23T05:49:46.161Z,99.99
2022-10-23T05:50:46.782Z,99.99
2022-10-23T05:51:47.728Z,99.99
2022-10-23T05:52:48.516Z,99.99
2022-10-23T05:53:48.716Z,99.99
2022-10-23T05:54:49.208Z,99.99
2022-10-23T05:55:49.542Z,99.99
2022-10-23T05:56:49.747Z,99.99
2022-10-23T05:57:50.828Z,99.99
2022-10-23T05:58:50.440Z,99.99
2022-10-23T05:59:51.065Z,99.99
2022-10-23T06:00:51.699Z,99.99
2022-10-23T06:01:52.911Z,99.99
2022-10-23T06:02:52.990Z,99.99
2022-10-23T06:03:54.201Z,99.99
2022-10-23T06:04:55.113Z,99.99
2022-10-23T06:05:55.081Z,99.99
2022-10-23T06:06:55.582Z,99.99
2022-10-23T06:07:55.495Z,99.99
2022-10-23T06:08:56.717Z,99.99
2022-10-23T06:09:56.921Z,99.99
2022-10-23T06:10:57.117Z,99.99
2022-10-23T06:11:57.352Z,99.99
2022-10-23T06:12:58.056Z,99.99
2022-10-23T06:13:59.011Z,99.99
2022-10-23T06:14:59.216Z,99.99
2022-10-23T06:15:59.899Z,99.99
2022-10-23T06:17:00.074Z,99.99
2022-10-23T06:18:00.688Z,99.33
2022-10-23T06:19:01.599Z,99.9
2022-10-23T06:20:01.804Z,99.43
2022-10-23T06:21:02.453Z,98.61
2022-10-23T06:22:02.799Z,98.94
2022-10-23T06:23:03.804Z,99.23
2022-10-23T06:24:04.437Z,99.33
2022-10-23T06:25:04.328Z,99.33
2022-10-23T06:26:05.256Z,98.85
2022-10-23T06:27:05.477Z,98.66
2022-10-23T06:28:06.368Z,98.57
2022-10-23T06:29:07.150Z,98.66
2022-10-23T06:30:07.628Z,98.57
2022-10-23T06:31:07.544Z,97.99
2022-10-23T06:32:08.211Z,98.18
2022-10-23T06:33:12.004Z,98.18
2022-10-23T06:34:09.937Z,98.47
2022-10-23T06:35:10.131Z,98.37
2022-10-23T06:36:10.865Z,98.37
2022-10-23T06:37:11.590Z,97.99
2022-10-23T06:38:12.206Z,97.89
2022-10-23T06:39:13.140Z,97.99
2022-10-23T06:40:13.969Z,98.85
2022-10-23T06:41:14.014Z,99.04
2022-10-23T06:42:14.231Z,98.47
2022-10-23T06:43:15.341Z,98.66
2022-10-23T06:44:15.955Z,98.85
2022-10-23T06:45:16.865Z,98.28
2022-10-23T06:46:17.783Z,98.66
2022-10-23T06:47:18.235Z,98.47
2022-10-23T06:48:18.139Z,97.89
2022-10-23T06:49:18.753Z,97.71
2022-10-23T06:50:21.163Z,97.8
2022-10-23T06:51:20.651Z,97.71
2022-10-23T06:52:47.930Z,97.75
2022-10-23T06:53:35.166Z,97.8
2022-10-23T06:54:36.089Z,97.56
2022-10-23T06:56:37.741Z,97.28
2022-10-23T06:57:38.677Z,97.66
2022-10-23T06:58:39.250Z,96.99
2022-10-23T06:59:39.872Z,96.89
2022-10-23T07:00:40.838Z,97.56
2022-10-23T07:01:41.607Z,97.37
2022-10-23T07:02:41.805Z,96.8
2022-10-23T07:03:41.490Z,96.32
2022-10-23T07:04:42.125Z,96.42
2022-10-23T07:05:42.754Z,95.94
2022-10-23T07:06:43.945Z,95.94
2022-10-23T07:07:44.177Z,96.03
2022-10-23T07:08:44.395Z,95.65
2022-10-23T07:09:45.303Z,95.65
2022-10-23T07:10:45.493Z,95.36
2022-10-23T07:11:45.983Z,95.46
2022-10-23T07:12:46.656Z,95.94
2022-10-23T07:13:46.344Z,96.22
2022-10-23T07:14:47.563Z,96.22
2022-10-23T07:15:48.486Z,96.22
2022-10-23T07:16:49.387Z,96.27
2022-10-23T07:17:49.747Z,95.89
2022-10-23T07:18:50.634Z,95.03
2022-10-23T07:19:51.542Z,95.03
2022-10-23T07:20:52.759Z,94.93
2022-10-23T07:21:52.957Z,94.36
2022-10-23T07:22:53.160Z,93.69
2022-10-23T07:23:54.179Z,93.88
2022-10-23T07:24:55.105Z,93.69
2022-10-23T07:25:56.043Z,93.12
2022-10-23T07:26:55.960Z,93.12
2022-10-23T07:27:56.481Z,93.21
2022-10-23T07:28:57.097Z,93.31
2022-10-23T07:29:57.008Z,92.59
2022-10-23T07:30:58.349Z,92.11
2022-10-23T07:31:59.263Z,91.44
2022-10-23T07:33:00.203Z,92.02
2022-10-23T07:34:00.177Z,91.53
2022-10-23T07:35:01.152Z,91.63
2022-10-23T07:36:02.316Z,91.92
2022-10-23T07:37:03.238Z,91.63
2022-10-23T07:38:03.467Z,91.01
2022-10-23T07:39:04.066Z,90.91
2022-10-23T07:40:04.567Z,90.15
2022-10-23T07:41:06.703Z,89.38
2022-10-23T07:42:05.003Z,89.23
2022-10-23T07:43:05.262Z,88.95
2022-10-23T07:44:05.977Z,87.8
2022-10-23T07:45:06.188Z,85.93
2022-10-23T07:46:07.102Z,85.06
2022-10-23T07:47:07.602Z,84.63
2022-10-23T07:48:08.249Z,84.15
2022-10-23T07:49:08.428Z,83.91
2022-10-23T07:50:09.643Z,83.42
2022-10-23T07:51:10.244Z,84
2022-10-23T07:52:11.599Z,82.75
2022-10-23T07:53:11.831Z,81.16
2022-10-23T07:54:12.828Z,80.35
2022-10-23T07:55:13.466Z,80.74
2022-10-23T07:56:13.681Z,81.12
2022-10-23T07:57:14.626Z,81.98
2022-10-23T07:58:14.838Z,81.45
2022-10-23T07:59:15.751Z,80.58
2022-10-23T08:00:16.219Z,80.78
2022-10-23T08:01:16.777Z,79.53
2022-10-23T08:02:17.420Z,79.82
2022-10-23T08:03:17.945Z,80.49
2022-10-23T08:04:18.928Z,79.44
2022-10-23T08:05:19.571Z,79.63
2022-10-23T08:06:19.784Z,79.14
2022-10-23T08:07:20.422Z,80.49
2022-10-23T08:08:21.375Z,80.11
2022-10-23T08:09:22.390Z,79.72
2022-10-23T08:10:23.355Z,79.72
2022-10-23T08:11:23.632Z,79.44
2022-10-23T08:12:23.855Z,79.63
2022-10-23T08:13:23.770Z,79.44
2022-10-23T08:14:24.990Z,80.01
2022-10-23T08:15:25.915Z,79.82
2022-10-23T08:16:26.233Z,79.91
2022-10-23T08:17:30.363Z,79.72
2022-10-23T08:18:27.503Z,79.72
2022-10-23T08:19:27.404Z,78.77
2022-10-23T08:20:28.399Z,79.44
2022-10-23T08:21:29.021Z,78.67
2022-10-23T08:22:29.242Z,78.47
2022-10-23T08:23:29.453Z,78.38
2022-10-23T08:24:29.776Z,78.32
2022-10-23T08:26:31.445Z,77.65
2022-10-23T08:27:31.665Z,78.52
2022-10-23T08:28:32.464Z,77.65
2022-10-23T08:29:32.667Z,78.52
2022-10-23T08:30:33.584Z,78.23
2022-10-23T08:31:34.217Z,78.23
2022-10-23T08:32:34.411Z,77.56
2022-10-23T08:33:34.647Z,77.46
2022-10-23T08:34:35.472Z,78.13
2022-10-23T08:35:36.112Z,78.8
2022-10-23T08:36:36.391Z,78.03
2022-10-23T08:37:36.886Z,76.79
2022-10-23T08:38:37.972Z,77.94
2022-10-23T08:39:38.022Z,77.17
2022-10-23T08:40:38.476Z,76.69
2022-10-23T08:41:38.764Z,76.69
2022-10-23T08:42:39.383Z,77.17
2022-10-23T08:43:39.692Z,77.46
2022-10-23T08:44:41.016Z,77.46
2022-10-23T08:45:41.634Z,77.69
2022-10-23T08:46:42.559Z,76.73
2022-10-23T08:47:42.745Z,76.92
2022-10-23T08:48:43.685Z,76.54
2022-10-23T08:49:43.861Z,76.06
2022-10-23T08:50:44.760Z,76.44
2022-10-23T08:51:44.956Z,76.15
2022-10-23T08:52:46.229Z,75.13
2022-10-23T08:53:46.026Z,74.75
2022-10-23T08:54:46.748Z,74.46
2022-10-23T08:55:46.978Z,73.15
2022-10-23T08:56:47.198Z,72.38
2022-10-23T08:57:49.036Z,71.94
2022-10-23T08:58:48.378Z,71.78
2022-10-23T08:59:48.691Z,69.76
2022-10-23T09:00:49.175Z,67.97
2022-10-23T09:01:49.762Z,66.94
2022-10-23T09:02:50.802Z,66.2
2022-10-23T09:03:51.151Z,66.11
2022-10-23T09:04:52.162Z,64.79
2022-10-23T09:05:52.053Z,62.31
2022-10-23T09:06:52.542Z,61.19
2022-10-23T09:07:53.307Z,59.28
2022-10-23T09:08:53.812Z,59.67
2022-10-23T09:09:54.313Z,60.09
2022-10-23T09:10:57.118Z,59.8
2022-10-23T09:11:55.748Z,59.44
2022-10-23T09:12:56.968Z,59.63
2022-10-23T09:13:57.400Z,59.44
2022-10-23T09:14:58.111Z,59.25
2022-10-23T09:15:58.734Z,59.25
2022-10-23T09:16:58.638Z,58.95
2022-10-23T09:17:59.318Z,58.18
2022-10-23T09:18:59.243Z,58.02
2022-10-23T09:19:59.934Z,58.8
2022-10-23T09:21:00.152Z,59.47
2022-10-23T09:22:00.777Z,58.89
2022-10-23T09:23:00.673Z,59.38
2022-10-23T09:24:01.905Z,60.5
2022-10-23T09:25:02.230Z,61.08
2022-10-23T09:26:03.164Z,60.57
2022-10-23T09:28:08.097Z,61.73
2022-10-23T09:29:05.329Z,61.15
2022-10-23T09:30:06.280Z,58.8
2022-10-23T09:31:06.477Z,60.64
2022-10-23T09:32:06.967Z,59.48
2022-10-23T09:33:07.887Z,59.48
2022-10-23T09:34:11.670Z,60.89
2022-10-23T09:35:09.800Z,61.47
2022-10-23T09:36:10.296Z,62.05
2022-10-23T09:37:10.622Z,62.92
2022-10-23T09:38:11.251Z,63.5
2022-10-23T09:39:12.460Z,63.31
2022-10-23T09:40:13.397Z,64.28
2022-10-23T09:41:14.425Z,64.47
2022-10-23T09:42:14.462Z,64.28
2022-10-23T09:43:15.675Z,64.63
2022-10-23T09:44:15.915Z,65.4
2022-10-23T09:45:16.951Z,64.72
2022-10-23T09:46:17.576Z,64.24
2022-10-23T09:47:18.683Z,64.34
2022-10-23T09:48:19.881Z,65.01
2022-10-23T09:49:19.822Z,65.14
2022-10-23T09:50:20.703Z,65.34
2022-10-23T09:51:21.626Z,63.73
2022-10-23T09:52:22.549Z,62.86
2022-10-23T09:53:22.744Z,63.56
2022-10-23T09:54:23.957Z,62.98
2022-10-23T09:55:24.715Z,62.4
2022-10-23T09:56:29.941Z,62.89
2022-10-23T09:57:26.295Z,62.79
2022-10-23T09:58:27.259Z,61.37
2022-10-23T09:59:27.785Z,60.44
2022-10-23T10:00:28.113Z,59.98
2022-10-23T10:01:29.091Z,58.85
2022-10-23T10:02:29.790Z,58.65
2022-10-23T10:03:30.714Z,57.04
2022-10-23T10:04:30.946Z,57.65
2022-10-23T10:05:30.913Z,57.19
2022-10-23T10:06:32.038Z,55.74
2022-10-23T10:07:33.363Z,52.93
2022-10-23T10:08:32.759Z,51.89
2022-10-23T10:09:33.996Z,51.04
2022-10-23T10:10:34.629Z,50.26
2022-10-23T10:11:35.157Z,50.46
2022-10-23T10:12:36.081Z,51.35
2022-10-23T10:13:36.307Z,51.45
2022-10-23T10:14:36.541Z,50.68
2022-10-23T10:15:37.249Z,50.58
2022-10-23T10:17:38.597Z,50.31
2022-10-23T10:18:39.290Z,49.76
2022-10-23T10:19:39.663Z,49.95
2022-10-23T10:20:40.881Z,50.04
2022-10-23T10:21:40.786Z,49.82
2022-10-23T10:22:41.413Z,49.8
2022-10-23T10:23:41.861Z,50.68
2022-10-23T10:24:42.082Z,51.33
2022-10-23T10:25:42.540Z,51.5
2022-10-23T10:26:43.764Z,52.18
2022-10-23T10:27:44.229Z,52.93
2022-10-23T10:28:44.780Z,53.61
2022-10-23T10:29:44.734Z,53.39
2022-10-23T10:30:45.376Z,53.39
2022-10-23T10:31:48.185Z,53.58
2022-10-23T10:32:46.229Z,54.03
2022-10-23T10:33:47.261Z,54.23
2022-10-23T10:34:47.205Z,54.81
2022-10-23T10:35:47.896Z,55.2
2022-10-23T10:36:48.405Z,55.2
2022-10-23T10:37:51.508Z,55.27
2022-10-23T10:38:49.710Z,55.66
2022-10-23T10:39:50.356Z,55.66
2022-10-23T10:40:51.572Z,55.66
2022-10-23T10:41:51.789Z,56.52
2022-10-23T10:42:52.153Z,56.6
2022-10-23T10:43:52.406Z,56.88
2022-10-23T10:44:52.933Z,56.5
2022-10-23T10:45:53.880Z,56.7
2022-10-23T10:46:54.150Z,56.4
2022-10-23T10:47:55.077Z,56.5
2022-10-23T10:48:54.985Z,56.4
2022-10-23T10:49:56.213Z,56.6
2022-10-23T10:50:57.119Z,56.7
2022-10-23T10:51:57.742Z,56.62
2022-10-23T10:52:58.139Z,56.11
2022-10-23T10:53:58.068Z,56.92
2022-10-23T10:54:59.037Z,57.11
2022-10-23T10:56:00.071Z,56.82
2022-10-23T10:57:00.540Z,57.11
2022-10-23T10:58:05.042Z,57.2
2022-10-23T10:59:01.667Z,57.11
2022-10-23T11:00:01.635Z,57.5
2022-10-23T11:01:02.899Z,56.92
2022-10-23T11:02:02.730Z,57.01
2022-10-23T11:03:03.065Z,57.3
2022-10-23T11:04:03.265Z,56.52
2022-10-23T11:05:04.211Z,55.66
2022-10-23T11:06:04.369Z,56.52
2022-10-23T11:07:05.564Z,55.78
2022-10-23T11:08:06.489Z,55.36
2022-10-23T11:09:24.956Z,55.56
2022-10-23T11:10:07.174Z,55.49
2022-10-23T11:11:07.524Z,55.46
2022-10-23T11:12:08.203Z,55.46
2022-10-23T11:13:08.703Z,55.36
2022-10-23T11:14:09.018Z,56.26
2022-10-23T11:15:10.053Z,55.4
2022-10-23T11:16:10.179Z,55.49
2022-10-23T11:17:11.523Z,54.23
2022-10-23T11:18:12.145Z,55.2
2022-10-23T11:19:18.231Z,55.1
2022-10-23T11:20:13.831Z,54.45
2022-10-23T11:21:13.986Z,53.77
2022-10-23T11:22:13.904Z,53
2022-10-23T11:23:15.108Z,52.61
2022-10-23T11:24:15.013Z,54.45
2022-10-23T11:25:15.941Z,54.94
2022-10-23T11:26:19.570Z,54.55
2022-10-23T11:27:16.900Z,54.09
2022-10-23T11:28:17.824Z,53.89
2022-10-23T11:29:18.451Z,52.93
2022-10-23T11:30:19.434Z,52.8
2022-10-23T11:31:20.659Z,52.34
2022-10-23T11:32:21.609Z,53.49
2022-10-23T11:33:22.433Z,53.49
2022-10-23T11:34:22.633Z,53.87
2022-10-23T11:35:23.274Z,53.61
2022-10-23T11:36:24.240Z,54.58
2022-10-23T11:37:24.889Z,53.99
2022-10-23T11:38:25.233Z,53.99
2022-10-23T11:39:26.133Z,53.31
2022-10-23T11:40:27.057Z,53.7
2022-10-23T11:41:32.081Z,54.67
2022-10-23T11:42:29.029Z,55.06
2022-10-23T11:43:29.815Z,54.67
2022-10-23T11:44:29.711Z,53.83
2022-10-23T11:45:30.240Z,53.63
2022-10-23T11:46:31.248Z,53.05
2022-10-23T11:47:35.116Z,53.44
2022-10-23T11:48:31.972Z,52.37
2022-10-23T11:49:32.196Z,52.47
2022-10-23T11:50:32.846Z,52.76
2022-10-23T11:51:33.032Z,52.56
2022-10-23T11:52:36.139Z,51.01
2022-10-23T11:53:34.418Z,51.23
2022-10-23T11:55:35.187Z,50.65
2022-10-23T11:56:35.510Z,51.53
2022-10-23T11:57:36.176Z,51.33
2022-10-23T11:58:37.390Z,51.53
2022-10-23T11:59:37.601Z,50.74
2022-10-23T12:00:38.159Z,50.84
2022-10-23T12:01:38.531Z,50.36
2022-10-23T12:02:39.296Z,51.33
2022-10-23T12:03:39.729Z,50.26
2022-10-23T12:04:39.934Z,49.77
2022-10-23T12:05:40.883Z,50.07
2022-10-23T12:06:41.961Z,48.9
2022-10-23T12:07:43.249Z,50.07
2022-10-23T12:08:43.680Z,50.16
2022-10-23T12:09:44.606Z,49.87
2022-10-23T12:10:44.821Z,49.49
2022-10-23T12:11:45.757Z,49.29
2022-10-23T12:12:46.717Z,49.75
2022-10-23T12:13:47.019Z,49.27
2022-10-23T12:14:47.222Z,48.97
2022-10-23T12:15:47.773Z,49.56
2022-10-23T12:16:48.224Z,50.6
2022-10-23T12:17:48.551Z,50.43
2022-10-23T12:18:48.751Z,50.89
2022-10-23T12:19:49.673Z,52.06
2022-10-23T12:20:49.903Z,50.79
2022-10-23T12:21:50.092Z,50.21
2022-10-23T12:22:50.295Z,50.6
2022-10-23T12:23:53.474Z,51.67
2022-10-23T12:24:51.049Z,51.57
2022-10-23T12:25:51.672Z,51.28
2022-10-23T12:26:51.964Z,51.67
2022-10-23T12:27:52.597Z,51.86
2022-10-23T12:28:53.089Z,50.99
2022-10-23T12:29:53.311Z,51.86
2022-10-23T12:31:54.626Z,51.28
2022-10-23T12:32:55.581Z,51.28
2022-10-23T12:33:56.231Z,50.5
2022-10-23T12:34:56.451Z,50.89
2022-10-23T12:35:56.379Z,51.37
2022-10-23T12:36:57.328Z,51.76
2022-10-23T12:37:57.653Z,51.96
2022-10-23T12:38:58.666Z,51.76
2022-10-23T12:39:58.952Z,51.76
2022-10-23T12:40:58.981Z,51.37
2022-10-23T12:41:59.915Z,51.28
2022-10-23T12:43:00.148Z,51.28
2022-10-23T12:44:00.885Z,51.45
2022-10-23T12:45:01.520Z,51.54
2022-10-23T12:46:01.457Z,51.28
2022-10-23T12:47:01.777Z,52.22
2022-10-23T12:48:02.409Z,52.54
2022-10-23T12:49:02.611Z,51.57
2022-10-23T12:50:03.817Z,51.47
2022-10-23T12:51:04.344Z,51.47
2022-10-23T12:52:04.530Z,51.76
2022-10-23T12:53:04.732Z,51.86
2022-10-23T12:54:06.187Z,51.57
2022-10-23T12:55:06.111Z,51.96
2022-10-23T12:56:06.161Z,52.34
2022-10-23T12:57:06.316Z,53.02
2022-10-23T12:58:07.253Z,52.44
2022-10-23T12:59:07.469Z,52.34
2022-10-23T13:00:07.715Z,52.64
2022-10-23T13:01:09.038Z,53.44
2022-10-23T13:02:10.011Z,51.59
2022-10-23T13:03:09.739Z,51.4
2022-10-23T13:04:10.378Z,52.08
2022-10-23T13:05:10.833Z,51.89
2022-10-23T13:06:11.211Z,51.31
2022-10-23T13:07:11.802Z,50.34
2022-10-23T13:08:12.003Z,50.94
2022-10-23T13:09:12.628Z,51.89
2022-10-23T13:10:13.862Z,51.62
2022-10-23T13:11:14.479Z,51.81
2022-10-23T13:12:14.984Z,50.26
2022-10-23T13:13:15.937Z,49.77